Time;durP1;ratioP1;P1;durP2;ratioP2;P2;SDS_P1;SDS_P2;PMS_P1;PMS_P2;Temp;Humidity;BMP_temperature;BMP_pressure;BME280_temperature;BME280_humidity;BME280_pressure;Samples;Min_cycle;Max_cycle;Signal;HPM_P1;HPM_P2
2023/01/24 00:00:40;;;;;;;2.30;2.10;;;20.60;40.60;;;;;;5050613;28;20045;-66
2023/01/24 00:03:12;;;;;;;2.47;2.20;;;20.60;40.60;;;;;;5053885;28;20052;-67
2023/01/24 00:05:46;;;;;;;2.33;2.00;;;20.60;40.60;;;;;;5054548;28;20052;-67
2023/01/24 00:08:15;;;;;;;2.92;2.60;;;20.60;40.50;;;;;;5055802;28;20102;-67
2023/01/24 00:10:42;;;;;;;3.53;2.50;;;20.60;40.50;;;;;;5055978;28;20056;-67
2023/01/24 00:13:12;;;;;;;2.63;2.10;;;20.60;40.50;;;;;;5055347;28;20393;-67
2023/01/24 00:15:39;;;;;;;2.25;1.90;;;20.60;40.50;;;;;;5055305;28;20049;-67
2023/01/24 00:18:06;;;;;;;2.47;2.17;;;20.60;40.50;;;;;;5054692;28;20131;-67
2023/01/24 00:20:34;;;;;;;1.88;1.73;;;20.60;40.50;;;;;;5052542;28;20136;-66
2023/01/24 00:23:01;;;;;;;2.47;2.10;;;20.60;40.50;;;;;;5053879;28;20480;-67
2023/01/24 00:25:28;;;;;;;2.03;1.83;;;20.60;40.40;;;;;;5054995;28;20048;-67
2023/01/24 00:27:55;;;;;;;2.83;2.30;;;20.60;40.50;;;;;;5055529;28;20103;-67
2023/01/24 00:30:22;;;;;;;2.78;2.25;;;20.60;40.50;;;;;;5054869;28;20493;-67
2023/01/24 00:32:49;;;;;;;2.63;2.40;;;20.60;40.50;;;;;;5054816;28;20131;-67
2023/01/24 00:35:16;;;;;;;2.10;1.80;;;20.60;40.50;;;;;;5054273;28;20052;-66
2023/01/24 00:37:43;;;;;;;2.15;1.90;;;20.60;40.50;;;;;;5053246;28;20132;-67
2023/01/24 00:40:11;;;;;;;1.88;1.70;;;20.60;40.50;;;;;;5054496;28;20055;-66
2023/01/24 00:42:38;;;;;;;2.38;2.17;;;20.50;40.40;;;;;;5053905;28;20382;-66
2023/01/24 00:45:05;;;;;;;2.45;2.20;;;20.50;40.40;;;;;;5054337;28;20060;-66
2023/01/24 00:47:33;;;;;;;2.08;1.88;;;20.50;40.40;;;;;;5053258;28;20048;-67
2023/01/24 00:50:00;;;;;;;2.63;2.42;;;20.50;40.40;;;;;;5054352;28;20191;-66
2023/01/24 00:52:27;;;;;;;1.85;1.75;;;20.50;40.40;;;;;;5054173;28;20078;-66
2023/01/24 00:54:54;;;;;;;2.30;1.77;;;20.50;40.40;;;;;;5054831;28;20412;-67
2023/01/24 00:57:22;;;;;;;2.10;1.85;;;20.50;40.40;;;;;;5054233;28;20051;-67
2023/01/24 00:59:49;;;;;;;2.50;2.05;;;20.50;40.40;;;;;;5052116;28;20099;-67
2023/01/24 01:02:16;;;;;;;1.95;1.73;;;20.50;40.40;;;;;;5054457;28;20124;-67
2023/01/24 01:04:43;;;;;;;1.80;1.70;;;20.50;40.40;;;;;;5054858;28;20045;-66
2023/01/24 01:07:11;;;;;;;2.08;1.60;;;20.50;40.40;;;;;;5054258;28;20095;-67
2023/01/24 01:09:38;;;;;;;2.40;2.17;;;20.50;40.40;;;;;;5054648;28;20057;-67
2023/01/24 01:12:05;;;;;;;2.22;1.92;;;20.50;40.40;;;;;;5054496;28;20151;-67
2023/01/24 01:14:32;;;;;;;2.10;1.90;;;20.50;40.40;;;;;;5054796;28;20048;-66
2023/01/24 01:16:59;;;;;;;2.40;1.70;;;20.50;40.40;;;;;;5053245;28;20049;-66
2023/01/24 01:19:27;;;;;;;2.20;2.05;;;20.50;40.40;;;;;;5054028;28;20204;-67
2023/01/24 01:21:54;;;;;;;1.60;1.50;;;20.50;40.40;;;;;;5053942;28;20052;-67
2023/01/24 01:24:21;;;;;;;1.98;1.85;;;20.50;41.00;;;;;;5053676;28;20049;-67
2023/01/24 01:26:49;;;;;;;1.77;1.67;;;20.50;40.40;;;;;;5053633;28;20390;-67
2023/01/24 01:29:16;;;;;;;1.80;1.70;;;20.50;40.50;;;;;;5054635;28;20049;-67
2023/01/24 01:31:43;;;;;;;2.05;1.52;;;20.50;40.40;;;;;;5052857;28;20424;-67
2023/01/24 01:34:10;;;;;;;1.95;1.85;;;20.40;40.40;;;;;;5052767;28;20489;-67
2023/01/24 01:36:38;;;;;;;1.88;1.65;;;20.40;40.40;;;;;;5053863;28;20049;-67
2023/01/24 01:39:05;;;;;;;2.92;2.08;;;20.50;40.50;;;;;;5053295;28;20144;-67
2023/01/24 01:41:32;;;;;;;2.85;2.00;;;20.50;40.50;;;;;;5053843;28;20120;-67
2023/01/24 01:47:34;;;;;;;1.33;1.23;;;20.50;40.50;;;;;;5052801;28;20127;-67
2023/01/24 01:50:28;;;;;;;2.42;2.22;;;20.40;40.50;;;;;;5052994;28;20132;-67
2023/01/24 01:52:55;;;;;;;2.20;1.38;;;20.40;40.40;;;;;;5052249;28;20128;-67
2023/01/24 01:55:30;;;;;;;3.22;1.88;;;20.40;40.50;;;;;;5054112;28;20072;-66
2023/01/24 01:57:59;;;;;;;2.08;1.88;;;20.40;40.50;;;;;;5051872;28;20048;-67
2023/01/24 02:00:27;;;;;;;1.65;1.48;;;20.40;40.40;;;;;;5053020;28;20051;-66
2023/01/24 02:05:51;;;;;;;1.50;1.40;;;20.40;40.50;;;;;;5053777;28;20052;-67
2023/01/24 02:08:21;;;;;;;1.90;1.70;;;20.40;40.40;;;;;;5053370;28;20049;-67
2023/01/24 02:13:43;;;;;;;1.60;1.45;;;20.40;40.40;;;;;;5053043;28;20088;-66
2023/01/24 02:16:13;;;;;;;1.73;1.55;;;20.40;40.30;;;;;;5052957;28;20071;-66
2023/01/24 02:18:43;;;;;;;1.70;1.60;;;20.50;40.40;;;;;;5053195;28;20377;-67
2023/01/24 02:21:15;;;;;;;2.30;1.80;;;20.50;40.40;;;;;;5052533;28;20044;-67
2023/01/24 02:24:04;;;;;;;1.52;1.42;;;20.40;40.30;;;;;;5051914;28;20377;-67
2023/01/24 02:26:32;;;;;;;1.48;1.38;;;20.40;40.30;;;;;;5052841;28;20558;-67
2023/01/24 02:29:10;;;;;;;1.40;1.30;;;20.40;40.30;;;;;;5052376;28;20556;-67
2023/01/24 02:32:00;;;;;;;3.47;1.88;;;20.40;40.30;;;;;;5052210;28;20049;-66
2023/01/24 02:34:29;;;;;;;1.40;1.30;;;20.40;40.30;;;;;;5052910;28;20102;-67
2023/01/24 02:37:01;;;;;;;1.77;1.63;;;20.40;40.30;;;;;;5052594;28;20141;-67
2023/01/24 02:39:40;;;;;;;2.88;1.42;;;20.40;40.30;;;;;;5052500;28;20139;-66
2023/01/24 02:42:17;;;;;;;1.67;1.58;;;20.40;40.30;;;;;;5052789;28;20053;-67
2023/01/24 02:45:01;;;;;;;1.90;1.80;;;20.40;40.30;;;;;;5052946;28;20081;-66
2023/01/24 02:47:34;;;;;;;1.38;1.27;;;20.40;40.30;;;;;;5051119;28;20416;-67
2023/01/24 02:50:01;;;;;;;2.58;1.50;;;20.40;40.30;;;;;;5052009;28;20087;-67
2023/01/24 02:55:16;;;;;;;2.42;1.55;;;20.40;40.30;;;;;;5052324;28;20041;-67
2023/01/24 03:00:31;;;;;;;1.63;1.52;;;20.40;40.30;;;;;;5052582;28;20071;-67
2023/01/24 03:02:58;;;;;;;1.65;1.55;;;20.40;40.30;;;;;;5053096;28;20133;-67
2023/01/24 03:05:25;;;;;;;1.35;1.20;;;20.40;40.30;;;;;;5052777;28;20559;-67
2023/01/24 03:07:53;;;;;;;1.85;1.60;;;20.40;40.80;;;;;;5052244;28;20045;-67
2023/01/24 03:10:20;;;;;;;1.63;1.52;;;20.40;40.30;;;;;;5052554;28;20045;-67
2023/01/24 03:35:04;;;;;;;1.42;1.33;;;20.30;40.20;;;;;;5051381;28;20132;-66
2023/01/24 03:40:18;;;;;;;1.30;1.20;;;20.30;40.30;;;;;;5052019;28;20059;-67
2023/01/24 03:42:49;;;;;;;1.40;1.30;;;20.30;40.30;;;;;;5054698;28;20048;-66
2023/01/24 03:45:18;;;;;;;1.20;1.15;;;20.30;40.30;;;;;;5054899;28;20080;-67
2023/01/24 03:47:55;;;;;;;1.42;1.33;;;20.30;40.30;;;;;;5055190;28;20508;-67
2023/01/24 03:53:20;;;;;;;1.30;1.30;;;20.30;40.20;;;;;;5053935;28;20040;-67
2023/01/24 03:55:55;;;;;;;1.58;1.30;;;20.30;40.30;;;;;;5055319;28;20520;-66
2023/01/24 03:58:24;;;;;;;1.38;1.17;;;20.30;40.30;;;;;;5054409;28;20037;-67
2023/01/24 04:00:53;;;;;;;1.70;1.38;;;20.30;40.30;;;;;;5053615;28;20071;-67
2023/01/24 04:03:20;;;;;;;1.23;1.17;;;20.30;40.30;;;;;;5053464;28;20056;-67
2023/01/24 04:05:48;;;;;;;1.30;1.20;;;20.30;40.30;;;;;;5055941;28;20161;-67
2023/01/24 04:08:16;;;;;;;1.02;1.00;;;20.30;40.30;;;;;;5054525;28;20095;-67
2023/01/24 04:10:43;;;;;;;1.42;1.23;;;20.30;40.30;;;;;;5055747;28;20103;-67
2023/01/24 04:13:11;;;;;;;1.40;1.17;;;20.30;40.30;;;;;;5053769;28;20400;-67
2023/01/24 04:15:38;;;;;;;1.33;1.23;;;20.30;40.30;;;;;;5055359;28;20076;-67
2023/01/24 04:18:06;;;;;;;1.10;1.00;;;20.30;40.30;;;;;;5054580;28;20071;-67
2023/01/24 04:20:35;;;;;;;2.03;1.10;;;20.30;40.30;;;;;;5053812;28;20107;-66
2023/01/24 04:23:06;;;;;;;0.97;0.97;;;20.30;40.30;;;;;;5054317;28;20095;-66
2023/01/24 04:25:34;;;;;;;;;;;20.30;40.30;;;;;;5054214;28;20373;-66
2023/01/24 04:28:02;;;;;;;1.85;1.38;;;20.30;40.20;;;;;;5054564;28;19924;-67
2023/01/24 04:30:30;;;;;;;1.50;1.40;;;20.30;40.20;;;;;;5050620;28;20045;-67
2023/01/24 04:32:57;;;;;;;1.30;1.20;;;20.30;40.20;;;;;;5055513;28;20053;-66
2023/01/24 04:35:28;;;;;;;1.00;0.90;;;20.30;40.20;;;;;;5053744;28;20049;-67
2023/01/24 04:38:00;;;;;;;0.80;0.80;;;20.30;40.20;;;;;;5054927;28;20072;-66
2023/01/24 04:40:27;;;;;;;1.30;1.20;;;20.30;40.30;;;;;;5054982;28;20107;-67
2023/01/24 04:42:56;;;;;;;1.13;1.02;;;20.30;40.20;;;;;;5054931;28;20127;-67
2023/01/24 04:45:24;;;;;;;1.23;1.10;;;20.30;40.20;;;;;;5049038;28;20058;-67
2023/01/24 04:47:53;;;;;;;0.95;0.95;;;20.30;40.20;;;;;;5048582;28;20481;-67
2023/01/24 04:50:21;;;;;;;1.20;1.10;;;20.30;40.20;;;;;;5053146;28;20045;-67
2023/01/24 04:52:48;;;;;;;1.45;1.35;;;20.30;40.20;;;;;;5054008;28;20059;-66
2023/01/24 04:55:16;;;;;;;1.20;1.10;;;20.30;40.20;;;;;;5054303;28;20128;-67
2023/01/24 04:57:43;;;;;;;1.27;1.17;;;20.30;40.30;;;;;;5054840;28;20049;-66
2023/01/24 05:00:11;;;;;;;0.90;0.90;;;20.30;40.30;;;;;;5054222;28;20132;-68
2023/01/24 05:02:38;;;;;;;0.95;0.95;;;20.30;40.20;;;;;;5052180;28;20053;-67
2023/01/24 05:05:06;;;;;;;1.20;1.05;;;20.30;40.20;;;;;;5050876;28;20045;-66
2023/01/24 05:07:34;;;;;;;0.88;0.88;;;20.30;40.20;;;;;;5051422;28;20041;-66
2023/01/24 05:10:01;;;;;;;1.80;0.88;;;20.30;40.20;;;;;;5052773;28;20071;-66
2023/01/24 05:12:28;;;;;;;0.98;0.98;;;20.30;40.20;;;;;;5052989;28;20056;-67
2023/01/24 05:14:56;;;;;;;0.98;0.98;;;20.20;40.20;;;;;;5053875;28;20075;-66
2023/01/24 05:17:23;;;;;;;1.10;1.08;;;20.20;40.20;;;;;;5052886;28;20045;-66
2023/01/24 05:19:51;;;;;;;1.20;1.10;;;20.30;40.30;;;;;;5052365;28;20147;-66
2023/01/24 05:22:18;;;;;;;1.75;1.35;;;20.20;40.20;;;;;;5049026;28;20055;-66
2023/01/24 05:24:45;;;;;;;1.10;1.00;;;20.30;40.30;;;;;;5041722;28;20129;-66
2023/01/24 05:27:12;;;;;;;0.90;0.90;;;20.30;40.30;;;;;;5046047;28;20059;-66
2023/01/24 05:29:39;;;;;;;0.68;0.68;;;20.30;40.20;;;;;;5045358;28;20412;-66
2023/01/24 05:32:07;;;;;;;0.93;0.93;;;20.30;40.20;;;;;;5043442;28;20049;-66
2023/01/24 05:34:34;;;;;;;0.80;0.80;;;20.30;40.20;;;;;;5038693;28;20140;-66
2023/01/24 05:37:01;;;;;;;1.38;1.27;;;20.30;40.30;;;;;;5046083;28;20120;-66
2023/01/24 05:39:28;;;;;;;1.50;1.40;;;20.30;40.20;;;;;;5046410;28;20497;-66
2023/01/24 05:41:55;;;;;;;1.50;1.40;;;20.20;40.00;;;;;;5050642;28;20037;-66
2023/01/24 05:44:23;;;;;;;1.67;1.52;;;20.20;40.00;;;;;;5046946;28;20049;-66
2023/01/24 05:46:50;;;;;;;1.60;1.50;;;20.20;40.00;;;;;;5047353;28;20040;-66
2023/01/24 05:49:17;;;;;;;1.33;1.23;;;20.20;40.00;;;;;;5047351;28;20049;-67
2023/01/24 05:51:44;;;;;;;1.50;1.40;;;20.20;40.10;;;;;;5047909;28;20480;-66
2023/01/24 05:54:11;;;;;;;1.55;1.45;;;20.20;40.10;;;;;;5043880;28;20038;-66
2023/01/24 05:56:40;;;;;;;1.80;1.30;;;20.20;40.10;;;;;;5045460;28;20056;-66
2023/01/24 05:59:07;;;;;;;1.20;1.10;;;20.20;40.10;;;;;;5050648;28;20443;-66
2023/01/24 06:01:34;;;;;;;1.58;1.27;;;20.20;40.10;;;;;;5050731;28;20511;-66
2023/01/24 06:04:01;;;;;;;1.40;1.30;;;20.20;40.10;;;;;;5051400;28;20561;-66
2023/01/24 06:06:30;;;;;;;1.17;1.10;;;20.30;40.10;;;;;;5051985;28;20049;-66
2023/01/24 06:08:58;;;;;;;2.08;1.70;;;20.20;40.00;;;;;;5051385;28;20060;-66
2023/01/24 06:11:27;;;;;;;1.80;1.30;;;20.30;40.00;;;;;;5050808;28;20560;-66
2023/01/24 06:13:55;;;;;;;1.30;1.20;;;20.30;40.00;;;;;;5048061;28;20045;-66
2023/01/24 06:16:24;;;;;;;1.80;1.70;;;20.30;39.90;;;;;;5052218;28;20052;-66
2023/01/24 06:18:53;;;;;;;1.35;1.25;;;20.30;39.80;;;;;;5049058;28;20081;-64
2023/01/24 06:21:49;;;;;;;1.30;1.25;;;20.30;39.80;;;;;;5046691;28;20091;-66
2023/01/24 06:24:22;;;;;;;1.55;1.45;;;20.40;39.80;;;;;;5043679;28;20051;-67
2023/01/24 06:26:50;;;;;;;1.60;1.50;;;20.40;39.80;;;;;;5036211;28;20076;-67
2023/01/24 06:29:19;;;;;;;1.77;1.67;;;20.40;39.80;;;;;;5040884;28;20049;-66
2023/01/24 06:32:08;;;;;;;1.90;1.30;;;20.40;39.70;;;;;;5042570;28;20071;-66
2023/01/24 06:35:07;;;;;;;2.03;1.70;;;20.50;39.80;;;;;;5044733;28;20072;-66
2023/01/24 06:37:47;;;;;;;1.70;1.42;;;20.50;39.70;;;;;;5037165;28;20059;-65
2023/01/24 06:40:19;;;;;;;4.13;1.67;;;20.60;39.80;;;;;;5042136;28;20105;-69
2023/01/24 06:42:46;;;;;;;3.10;1.60;;;20.60;40.10;;;;;;5039173;28;20049;-67
2023/01/24 06:45:14;;;;;;;3.90;1.52;;;20.60;40.30;;;;;;5039604;28;20123;-70
2023/01/24 06:47:42;;;;;;;1.50;1.40;;;20.70;40.40;;;;;;5035239;28;20049;-64
2023/01/24 06:50:21;;;;;;;1.70;1.60;;;20.70;40.50;;;;;;5037771;28;20056;-64
2023/01/24 06:52:49;;;;;;;1.67;1.58;;;20.70;41.10;;;;;;5041693;28;20059;-67
2023/01/24 06:55:17;;;;;;;2.13;1.85;;;20.80;40.70;;;;;;5040540;28;20166;-68
2023/01/24 06:57:46;;;;;;;2.22;2.03;;;20.80;40.60;;;;;;5036706;28;20041;-67
2023/01/24 07:00:14;;;;;;;3.00;2.40;;;20.90;40.60;;;;;;5039456;28;20053;-68
2023/01/24 07:02:41;;;;;;;2.63;2.42;;;20.90;40.40;;;;;;5042510;28;20048;-65
2023/01/24 07:05:09;;;;;;;2.65;2.38;;;20.90;40.20;;;;;;5040595;28;20049;-64
2023/01/24 07:07:36;;;;;;;2.53;2.28;;;20.90;40.10;;;;;;5037117;28;20471;-64
2023/01/24 07:10:03;;;;;;;2.63;2.42;;;21.00;40.10;;;;;;5038669;28;20057;-65
2023/01/24 07:12:30;;;;;;;2.53;2.28;;;21.00;40.10;;;;;;5042254;28;20057;-67
2023/01/24 07:14:58;;;;;;;4.53;2.30;;;21.00;40.20;;;;;;5044093;28;20049;-67
2023/01/24 07:17:25;;;;;;;3.67;2.40;;;21.10;40.20;;;;;;5045926;28;20041;-65
2023/01/24 07:19:52;;;;;;;3.30;2.17;;;21.10;40.50;;;;;;5048965;28;20052;-65
2023/01/24 07:22:20;;;;;;;3.25;2.65;;;21.10;40.50;;;;;;5048475;28;20045;-70
2023/01/24 07:24:49;;;;;;;3.22;2.08;;;21.10;40.50;;;;;;5050116;28;20408;-65
2023/01/24 07:27:16;;;;;;;3.00;2.38;;;21.10;40.60;;;;;;5046962;28;20564;-65
2023/01/24 07:29:44;;;;;;;1.92;1.83;;;21.20;40.60;;;;;;5045580;28;20091;-64
2023/01/24 07:32:12;;;;;;;4.07;2.40;;;21.20;40.40;;;;;;5048185;28;20049;-69
2023/01/24 07:34:39;;;;;;;3.05;2.47;;;21.20;40.10;;;;;;5048598;28;20384;-67
2023/01/24 07:37:07;;;;;;;3.35;2.42;;;21.30;40.20;;;;;;5049569;28;20408;-71
2023/01/24 07:39:34;;;;;;;2.90;2.60;;;21.40;40.40;;;;;;5049466;28;20040;-74
2023/01/24 07:42:01;;;;;;;3.63;2.60;;;21.40;40.30;;;;;;5048270;28;20385;-72
2023/01/24 07:44:28;;;;;;;8.05;2.40;;;21.40;40.30;;;;;;5049448;28;20069;-65
2023/01/24 07:46:56;;;;;;;3.38;2.38;;;21.40;40.30;;;;;;5050851;28;20053;-71
2023/01/24 07:49:23;;;;;;;2.60;2.00;;;21.50;40.30;;;;;;5044423;28;20063;-72
2023/01/24 07:51:51;;;;;;;4.00;2.35;;;21.50;40.20;;;;;;5049045;28;20041;-65
2023/01/24 07:54:19;;;;;;;2.78;2.38;;;21.50;40.70;;;;;;5045953;28;21948;-69
2023/01/24 07:56:47;;;;;;;2.83;2.42;;;21.60;40.20;;;;;;5043308;28;21072;-71
2023/01/24 07:59:15;;;;;;;5.75;2.90;;;21.60;40.20;;;;;;5047390;28;20376;-66
2023/01/24 08:01:44;;;;;;;4.03;2.17;;;21.60;40.20;;;;;;5043735;28;20055;-66
2023/01/24 08:04:11;;;;;;;2.38;2.17;;;21.60;40.00;;;;;;5044601;28;20099;-64
2023/01/24 08:07:16;;;;;;;4.72;2.72;;;21.60;39.80;;;;;;5044473;28;20083;-66
2023/01/24 08:09:28;;;;;;;2.75;2.53;;;21.70;39.80;;;;;;5047768;28;20075;-64
2023/01/24 08:11:56;;;;;;;2.97;2.70;;;21.70;39.60;;;;;;5045863;28;20087;-67
2023/01/24 08:14:23;;;;;;;3.30;3.00;;;21.70;39.60;;;;;;5049087;28;20049;-67
2023/01/24 08:16:50;;;;;;;3.92;2.80;;;21.70;39.70;;;;;;5046978;28;20400;-67
2023/01/24 08:19:18;;;;;;;3.63;2.42;;;21.80;40.20;;;;;;5046173;28;20045;-64
2023/01/24 08:22:05;;;;;;;4.20;2.90;;;21.80;39.70;;;;;;5044198;28;20053;-66
2023/01/24 08:24:32;;;;;;;3.65;2.03;;;21.80;39.60;;;;;;5039495;28;20080;-67
2023/01/24 08:27:01;;;;;;;4.30;2.38;;;21.90;39.80;;;;;;5045869;28;20052;-65
2023/01/24 08:29:29;;;;;;;3.05;2.70;;;21.90;40.00;;;;;;5043013;28;20128;-68
2023/01/24 08:31:58;;;;;;;4.88;2.35;;;21.90;40.20;;;;;;5043350;28;20056;-65
2023/01/24 08:34:25;;;;;;;4.03;2.73;;;21.90;40.00;;;;;;5038246;28;20106;-66
2023/01/24 08:36:52;;;;;;;2.78;2.30;;;22.00;39.80;;;;;;5043910;28;20305;-66
2023/01/24 08:39:19;;;;;;;4.32;3.15;;;22.00;39.60;;;;;;5047621;28;20110;-66
2023/01/24 08:41:54;;;;;;;5.43;3.85;;;22.00;39.40;;;;;;5045577;28;20416;-66
2023/01/24 08:44:22;;;;;;;5.28;3.40;;;22.00;39.30;;;;;;5043546;28;20400;-66
2023/01/24 08:46:49;;;;;;;4.97;3.65;;;22.00;39.20;;;;;;5043749;28;20053;-66
2023/01/24 08:49:16;;;;;;;4.85;3.15;;;22.00;39.10;;;;;;5048035;28;20053;-65
2023/01/24 08:51:43;;;;;;;6.18;3.00;;;22.00;39.00;;;;;;5045736;28;20149;-65
2023/01/24 08:54:11;;;;;;;5.13;3.35;;;22.10;39.00;;;;;;5047626;28;20053;-65
2023/01/24 08:56:38;;;;;;;3.67;3.03;;;22.10;39.00;;;;;;5044054;28;20041;-65
2023/01/24 08:59:05;;;;;;;3.85;3.13;;;22.10;39.00;;;;;;5041451;28;20053;-64
2023/01/24 09:01:33;;;;;;;3.72;3.03;;;22.00;38.90;;;;;;5046360;28;20053;-64
2023/01/24 09:04:02;;;;;;;5.18;3.45;;;22.10;39.50;;;;;;5047532;28;20080;-65
2023/01/24 09:06:29;;;;;;;3.15;2.85;;;22.10;38.90;;;;;;5047037;28;20054;-66
2023/01/24 09:08:56;;;;;;;3.33;2.65;;;22.10;38.90;;;;;;5044629;28;20047;-67
2023/01/24 09:11:23;;;;;;;5.10;3.15;;;22.00;38.90;;;;;;5046560;28;20057;-64
2023/01/24 09:13:50;;;;;;;4.18;3.40;;;22.10;38.90;;;;;;5050318;28;20052;-68
2023/01/24 09:16:18;;;;;;;4.35;2.42;;;22.10;38.90;;;;;;5047088;28;20057;-64
2023/01/24 09:18:46;;;;;;;3.13;2.80;;;22.10;38.80;;;;;;5045808;28;20481;-64
2023/01/24 09:21:13;;;;;;;3.97;3.28;;;22.10;38.80;;;;;;5045980;28;20056;-65
2023/01/24 09:23:40;;;;;;;4.30;3.30;;;22.10;38.80;;;;;;5046722;28;20535;-65
2023/01/24 09:26:07;;;;;;;6.55;4.38;;;22.20;38.80;;;;;;5045995;28;20499;-65
2023/01/24 09:28:34;;;;;;;5.32;4.40;;;22.20;38.70;;;;;;5047308;28;21015;-64
2023/01/24 09:31:03;;;;;;;5.85;3.40;;;22.20;38.60;;;;;;5040611;28;20051;-66
2023/01/24 09:33:30;;;;;;;5.13;4.03;;;22.30;38.60;;;;;;5039950;28;21623;-66
2023/01/24 09:36:02;;;;;;;4.53;3.55;;;22.30;38.50;;;;;;5042947;28;20057;-66
2023/01/24 09:38:31;;;;;;;4.93;3.25;;;22.40;38.50;;;;;;5044293;28;20037;-65
2023/01/24 09:41:36;;;;;;;3.83;3.38;;;22.40;38.30;;;;;;5043366;28;20053;-65
2023/01/24 09:44:13;;;;;;;4.03;3.25;;;22.50;38.20;;;;;;5043914;28;20125;-64
2023/01/24 09:46:50;;;;;;;3.92;3.53;;;22.60;38.10;;;;;;5041497;28;20053;-65
2023/01/24 09:49:34;;;;;;;4.00;2.95;;;22.60;38.00;;;;;;5046475;28;20053;-68
2023/01/24 09:52:05;;;;;;;3.95;3.00;;;22.70;37.90;;;;;;5045858;28;20057;-66
2023/01/24 09:54:38;;;;;;;3.22;2.67;;;22.80;37.90;;;;;;5047686;28;20131;-67
2023/01/24 09:57:17;;;;;;;7.28;3.25;;;22.80;37.80;;;;;;5039512;28;20132;-65
2023/01/24 09:59:50;;;;;;;5.18;3.65;;;22.90;37.80;;;;;;5049191;28;20530;-65
2023/01/24 10:02:22;;;;;;;5.78;3.42;;;22.90;37.70;;;;;;5047005;28;20063;-66
2023/01/24 10:04:49;;;;;;;5.75;3.05;;;22.90;37.70;;;;;;5047042;28;20067;-64
2023/01/24 10:07:54;;;;;;;6.18;3.65;;;23.00;37.60;;;;;;5043723;28;20064;-64
2023/01/24 10:10:42;;;;;;;5.63;3.78;;;23.00;37.60;;;;;;5044163;28;20127;-67
2023/01/24 10:13:36;;;;;;;4.30;3.10;;;23.00;37.10;;;;;;5043644;28;20082;-67
2023/01/24 10:16:32;;;;;;;5.10;3.35;;;23.00;37.50;;;;;;5042588;28;20160;-67
2023/01/24 10:19:40;;;;;;;3.85;3.45;;;23.00;37.50;;;;;;5039611;28;20107;-67
2023/01/24 10:22:23;;;;;;;7.85;3.63;;;23.10;37.50;;;;;;5038841;28;20049;-68
2023/01/24 10:25:03;;;;;;;4.00;3.20;;;23.00;37.40;;;;;;5044407;28;20057;-68
2023/01/24 10:27:36;;;;;;;3.90;2.97;;;23.10;37.40;;;;;;5043848;28;20053;-67
2023/01/24 10:30:16;;;;;;;4.28;3.15;;;23.10;37.30;;;;;;5029344;28;20059;-69
2023/01/24 10:32:46;;;;;;;5.45;3.17;;;23.10;37.30;;;;;;5037934;28;21124;-68
2023/01/24 10:35:19;;;;;;;3.60;3.15;;;23.10;37.30;;;;;;5044590;28;20052;-68
2023/01/24 10:37:55;;;;;;;5.25;3.33;;;23.10;37.30;;;;;;5043924;28;20504;-68
2023/01/24 10:40:27;;;;;;;3.42;3.05;;;23.20;37.30;;;;;;5041259;28;20087;-69
2023/01/24 10:42:54;;;;;;;4.25;2.72;;;23.20;37.30;;;;;;5045395;28;20459;-71
2023/01/24 10:45:51;;;;;;;3.45;3.10;;;23.20;37.20;;;;;;5039152;28;20247;-70
2023/01/24 10:48:39;;;;;;;5.28;3.22;;;23.30;37.20;;;;;;5044995;28;20041;-69
2023/01/24 10:51:18;;;;;;;5.60;3.00;;;23.30;37.10;;;;;;5046100;28;20052;-71
2023/01/24 10:53:47;;;;;;;4.60;3.00;;;23.30;37.00;;;;;;5043431;28;20136;-68
2023/01/24 10:56:18;;;;;;;7.32;3.40;;;23.30;37.00;;;;;;5042120;28;20137;-67
2023/01/24 10:59:09;;;;;;;7.05;3.28;;;23.30;37.10;;;;;;5049950;28;20080;-66
2023/01/24 11:01:41;;;;;;;8.07;4.55;;;23.30;37.10;;;;;;5047319;28;20045;-66
2023/01/24 11:04:26;;;;;;;7.63;4.55;;;23.30;37.20;;;;;;5047029;28;20069;-69
2023/01/24 11:06:54;;;;;;;6.18;4.07;;;23.30;37.20;;;;;;5046199;28;20128;-68
2023/01/24 11:09:29;;;;;;;6.85;4.85;;;23.30;37.10;;;;;;5047175;28;20354;-69
2023/01/24 11:11:58;;;;;;;8.35;4.10;;;23.30;37.20;;;;;;5046819;28;20045;-65
2023/01/24 11:14:28;;;;;;;9.43;3.78;;;23.30;37.10;;;;;;5048120;28;20048;-64
2023/01/24 11:16:58;;;;;;;5.47;3.60;;;23.30;37.10;;;;;;5046413;28;20075;-66
2023/01/24 11:19:38;;;;;;;7.53;4.10;;;23.30;37.10;;;;;;5042722;28;20049;-65
2023/01/24 11:22:34;;;;;;;6.65;3.95;;;23.30;37.10;;;;;;5044087;28;20044;-65
2023/01/24 11:25:14;;;;;;;5.68;3.53;;;23.30;37.20;;;;;;5045574;28;20041;-65
2023/01/24 11:27:50;;;;;;;4.63;3.58;;;23.30;37.20;;;;;;5040643;28;20053;-66
2023/01/24 11:30:20;;;;;;;4.97;3.20;;;23.30;37.20;;;;;;5043127;28;20049;-66
2023/01/24 11:33:15;;;;;;;6.82;4.40;;;23.30;37.20;;;;;;5046216;28;20092;-66
2023/01/24 11:35:54;;;;;;;5.03;3.78;;;23.30;37.20;;;;;;5041892;28;20076;-66
2023/01/24 11:38:28;;;;;;;6.05;3.45;;;23.30;37.20;;;;;;5040059;28;20131;-66
2023/01/24 11:41:08;;;;;;;5.88;4.07;;;23.20;37.20;;;;;;5039046;28;20057;-66
2023/01/24 11:44:12;;;;;;;7.25;3.45;;;23.20;37.30;;;;;;5039870;28;20548;-62
2023/01/24 11:47:09;;;;;;;4.90;3.17;;;23.20;37.90;;;;;;5027490;28;20092;-64
2023/01/24 11:50:06;;;;;;;5.70;3.50;;;23.20;37.40;;;;;;5037851;28;20165;-68
2023/01/24 11:53:05;;;;;;;4.78;2.85;;;23.20;37.40;;;;;;5037450;28;20045;-67
2023/01/24 11:56:12;;;;;;;5.63;3.78;;;23.20;37.30;;;;;;5040212;28;20040;-67
2023/01/24 11:59:19;;;;;;;5.28;3.50;;;23.20;37.30;;;;;;5040852;28;20071;-68
2023/01/24 12:02:13;;;;;;;4.35;3.10;;;23.20;37.20;;;;;;5044409;28;20049;-68
2023/01/24 12:05:06;;;;;;;4.28;2.72;;;23.20;37.20;;;;;;5043618;28;20132;-68
2023/01/24 12:08:07;;;;;;;4.82;3.22;;;23.30;37.20;;;;;;5045262;28;20541;-67
2023/01/24 12:10:50;;;;;;;5.47;2.95;;;23.30;37.20;;;;;;5044908;28;20053;-67
2023/01/24 12:13:52;;;;;;;3.22;2.72;;;23.20;37.10;;;;;;5046444;28;20044;-66
2023/01/24 12:16:42;;;;;;;6.07;2.85;;;23.30;37.20;;;;;;5046501;28;20110;-66
2023/01/24 12:19:46;;;;;;;3.60;2.40;;;23.30;37.10;;;;;;5048473;28;20052;-66
2023/01/24 12:22:18;;;;;;;4.80;3.30;;;23.30;37.10;;;;;;5043395;28;20049;-67
2023/01/24 12:24:57;;;;;;;3.95;2.63;;;23.30;37.10;;;;;;5045282;28;20103;-60
2023/01/24 12:27:27;;;;;;;4.90;2.67;;;23.30;37.10;;;;;;5044991;28;20057;-64
2023/01/24 12:30:32;;;;;;;2.40;2.20;;;23.40;37.30;;;;;;5048075;28;20093;-66
2023/01/24 12:33:16;;;;;;;2.58;2.35;;;23.40;37.30;;;;;;5045063;28;20080;-66
2023/01/24 12:35:47;;;;;;;3.88;2.83;;;23.40;37.60;;;;;;5042630;28;20179;-65
2023/01/24 12:38:45;;;;;;;4.70;2.63;;;23.50;38.00;;;;;;5045119;28;20055;-65
2023/01/24 12:41:33;;;;;;;1.80;1.70;;;23.50;37.20;;;;;;5042572;28;20566;-67
2023/01/24 12:44:34;;;;;;;5.43;2.70;;;23.60;37.10;;;;;;5049825;28;20095;-66
2023/01/24 12:47:19;;;;;;;2.70;1.95;;;23.60;37.10;;;;;;5046716;28;20076;-65
2023/01/24 12:50:13;;;;;;;3.78;2.42;;;23.60;37.10;;;;;;5043453;28;20114;-64
2023/01/24 12:53:10;;;;;;;11.05;3.20;;;23.60;37.30;;;;;;5043451;28;20503;-69
2023/01/24 12:55:59;;;;;;;4.90;2.25;;;23.60;37.30;;;;;;5045625;28;20056;-62
2023/01/24 12:58:33;;;;;;;2.77;2.20;;;23.70;37.60;;;;;;5045163;28;20136;-64
2023/01/24 13:01:40;;;;;;;2.45;1.80;;;23.70;37.50;;;;;;5041464;28;20320;-66
2023/01/24 13:04:46;;;;;;;3.17;2.00;;;23.70;37.30;;;;;;5042229;28;20083;-64
2023/01/24 13:07:53;;;;;;;2.25;1.80;;;23.70;37.30;;;;;;5044836;28;20554;-68
2023/01/24 13:10:46;;;;;;;4.63;2.83;;;23.70;37.30;;;;;;5046134;28;20143;-64
2023/01/24 13:13:20;;;;;;;3.53;2.20;;;23.80;37.30;;;;;;5046626;28;20045;-65
2023/01/24 13:16:14;;;;;;;2.75;1.60;;;23.80;37.30;;;;;;5042035;28;20052;-63
2023/01/24 13:19:01;;;;;;;2.10;1.80;;;23.80;37.30;;;;;;5040197;28;20144;-63
2023/01/24 13:21:55;;;;;;;2.17;1.60;;;23.80;37.40;;;;;;5042029;28;20497;-64
2023/01/24 13:24:37;;;;;;;3.17;2.13;;;23.70;37.30;;;;;;5048068;28;20459;-64
2023/01/24 13:27:29;;;;;;;2.97;1.83;;;23.70;37.10;;;;;;5039787;28;20061;-65
2023/01/24 13:30:23;;;;;;;2.58;1.73;;;23.80;37.20;;;;;;5046812;28;20158;-64
2023/01/24 13:32:53;;;;;;;2.33;1.98;;;23.70;37.10;;;;;;5044120;28;20080;-64
2023/01/24 13:35:23;;;;;;;4.15;2.10;;;23.70;36.90;;;;;;5046511;28;20041;-63
2023/01/24 13:37:59;;;;;;;2.83;1.60;;;23.70;36.90;;;;;;5043483;28;20047;-62
2023/01/24 13:40:34;;;;;;;3.65;1.67;;;23.70;36.70;;;;;;5045448;28;20067;-63
2023/01/24 13:43:23;;;;;;;4.07;2.10;;;23.70;36.70;;;;;;5030426;28;20064;-61
2023/01/24 13:45:51;;;;;;;2.05;1.80;;;23.70;36.70;;;;;;5043342;28;20135;-63
2023/01/24 13:48:44;;;;;;;8.80;2.42;;;23.70;36.60;;;;;;5043190;28;20037;-61
2023/01/24 13:51:41;;;;;;;2.95;1.70;;;23.70;36.60;;;;;;5040779;28;20072;-61
2023/01/24 13:54:35;;;;;;;8.25;2.03;;;23.70;36.60;;;;;;5038796;28;20040;-62
2023/01/24 13:57:26;;;;;;;6.80;1.85;;;23.70;36.70;;;;;;5043358;28;20049;-62
2023/01/24 14:00:15;;;;;;;3.25;1.65;;;23.70;36.70;;;;;;5038728;28;20045;-64
2023/01/24 14:03:00;;;;;;;6.13;1.90;;;23.70;36.80;;;;;;5043612;28;20063;-64
2023/01/24 14:05:35;;;;;;;5.00;2.03;;;23.70;37.00;;;;;;5043762;28;20140;-63